Time;durP1;ratioP1;P1;durP2;ratioP2;P2;SDS_P1;SDS_P2;PMS_P1;PMS_P2;Temp;Humidity;BMP_temperature;BMP_pressure;BME280_temperature;BME280_humidity;BME280_pressure;Samples;Min_cycle;Max_cycle;Signal;HPM_P1;HPM_P2
2021/06/02 00:02:20;;;;;;;0.37;0.37;;;;;;;16.44;49.95;100527.69;4991457;28;20280;-72
2021/06/02 00:04:47;;;;;;;0.23;0.23;;;;;;;16.36;49.49;100525.91;4991238;28;20173;-71
2021/06/02 00:07:20;;;;;;;0.53;0.53;;;;;;;16.33;50.48;100524.63;4993739;28;20653;-72
2021/06/02 00:09:46;;;;;;;0.60;0.60;;;;;;;16.30;49.69;100525.31;4994903;28;20181;-71
2021/06/02 00:12:12;;;;;;;0.30;0.30;;;;;;;16.35;49.42;100521.53;4994972;28;20173;-72
2021/06/02 00:14:39;;;;;;;0.40;0.40;;;;;;;16.36;50.37;100515.69;4994792;28;20187;-71
2021/06/02 00:17:07;;;;;;;0.50;0.50;;;;;;;16.37;49.46;100513.72;4994907;28;20307;-72
2021/06/02 00:19:33;;;;;;;0.43;0.40;;;;;;;16.30;48.65;100513.50;4994683;28;20174;-71
2021/06/02 00:22:01;;;;;;;2.90;0.50;;;;;;;16.21;48.72;100513.63;4994609;28;20212;-71
2021/06/02 00:24:27;;;;;;;1.13;0.60;;;;;;;16.26;49.79;100518.09;4994657;28;20201;-71
2021/06/02 00:26:57;;;;;;;0.40;0.40;;;;;;;16.26;49.51;100513.38;4994503;28;20177;-71
2021/06/02 00:29:34;;;;;;;0.60;0.60;;;;;;;16.24;49.28;100512.13;4994436;28;20219;-71
2021/06/02 00:32:01;;;;;;;0.60;0.60;;;;;;;16.16;50.18;100518.56;4994465;28;20187;-71
2021/06/02 00:34:27;;;;;;;0.40;0.40;;;;;;;16.10;48.89;100514.47;4993154;28;20251;-71
2021/06/02 00:36:52;;;;;;;0.50;0.50;;;;;;;16.10;49.36;100514.47;4994352;28;20231;-71
2021/06/02 00:39:18;;;;;;;0.70;0.60;;;;;;;16.05;48.68;100510.78;4994160;28;20177;-71
2021/06/02 00:41:47;;;;;;;0.50;0.50;;;;;;;15.98;48.79;100505.06;4994084;28;20169;-71
2021/06/02 00:44:15;;;;;;;0.40;0.40;;;;;;;15.95;48.71;100514.00;4992589;28;20589;-71
2021/06/02 00:46:42;;;;;;;0.50;0.50;;;;;;;15.85;49.18;100508.97;4974620;28;20175;-72
2021/06/02 00:49:10;;;;;;;0.43;0.43;;;;;;;15.82;49.21;100506.91;4974562;28;20630;-72
2021/06/02 00:51:36;;;;;;;0.60;0.57;;;;;;;15.82;49.16;100508.84;4974692;28;20688;-71
2021/06/02 00:54:03;;;;;;;0.50;0.50;;;;;;;15.81;48.95;100513.56;4974531;28;20178;-71
2021/06/02 00:56:36;;;;;;;0.80;0.80;;;;;;;15.75;48.45;100509.41;4973099;28;20229;-71
2021/06/02 00:59:02;;;;;;;0.60;0.50;;;;;;;15.66;49.33;100509.53;4973114;28;20607;-71
2021/06/02 01:01:35;;;;;;;1.53;0.70;;;;;;;15.48;50.17;100503.44;4974409;28;20170;-71
2021/06/02 01:04:04;;;;;;;0.83;0.50;;;;;;;15.38;50.38;100501.13;4974540;28;20178;-71
2021/06/02 01:06:34;;;;;;;0.73;0.73;;;;;;;15.47;50.81;100504.53;4973038;28;20174;-71
2021/06/02 01:09:01;;;;;;;0.40;0.40;;;;;;;15.44;50.82;100502.47;4974244;28;20200;-71
2021/06/02 01:11:27;;;;;;;0.47;0.47;;;;;;;15.47;51.00;100503.75;4974267;28;20174;-71
2021/06/02 01:13:55;;;;;;;0.40;0.40;;;;;;;15.41;50.56;100499.63;4974123;28;20182;-71
2021/06/02 01:16:21;;;;;;;0.30;0.30;;;;;;;15.41;49.83;100500.41;4974522;28;20205;-71
2021/06/02 01:18:47;;;;;;;0.70;0.43;;;;;;;15.34;49.77;100505.69;4972653;28;20202;-71
2021/06/02 01:21:20;;;;;;;0.40;0.40;;;;;;;15.24;49.09;100505.34;4973974;28;20220;-70
2021/06/02 01:23:48;;;;;;;1.03;0.30;;;;;;;15.18;49.25;100500.03;4974153;28;20197;-71
2021/06/02 01:26:14;;;;;;;0.30;0.30;;;;;;;15.18;49.21;100504.72;4974081;28;20665;-71
2021/06/02 01:28:40;;;;;;;0.30;0.30;;;;;;;15.18;49.40;100502.78;4973830;28;20162;-70
2021/06/02 01:31:07;;;;;;;0.33;0.33;;;;;;;15.10;49.52;100506.44;4973863;28;20182;-71
2021/06/02 01:33:57;;;;;;;0.53;0.53;;;;;;;15.11;49.91;100496.25;4973895;28;20650;-71
2021/06/02 01:36:42;;;;;;;0.63;0.63;;;;;;;15.10;50.37;100500.13;4972655;28;20178;-70
2021/06/02 01:39:43;;;;;;;0.50;0.50;;;;;;;15.01;50.60;100500.22;4973644;28;20205;-70
2021/06/02 01:42:23;;;;;;;0.50;0.50;;;;;;;14.92;51.29;100499.53;4973696;28;20213;-70
2021/06/02 01:45:10;;;;;;;0.30;0.30;;;;;;;14.94;51.02;100494.47;4973753;28;20165;-70
2021/06/02 01:48:03;;;;;;;0.50;0.50;;;;;;;14.92;50.97;100493.22;4973712;28;20166;-71
2021/06/02 01:50:31;;;;;;;0.80;0.50;;;;;;;14.92;50.23;100494.03;4973425;28;20166;-71
2021/06/02 01:53:49;;;;;;;0.40;0.40;;;;;;;14.91;50.73;100494.38;4973465;28;20249;-72
2021/06/02 01:56:26;;;;;;;0.30;0.30;;;;;;;14.85;51.16;100505.56;4957458;28;20626;-73
2021/06/02 01:59:22;;;;;;;0.30;0.30;;;;;;;14.86;51.37;100487.91;4972940;28;20248;-72
2021/06/02 02:02:26;;;;;;;0.30;0.30;;;;;;;14.83;51.29;100491.34;4973354;28;20182;-73
2021/06/02 02:05:11;;;;;;;0.50;0.40;;;;;;;14.78;51.03;100491.56;4932165;29;20182;-71
2021/06/02 02:07:51;;;;;;;1.20;0.60;;;;;;;14.72;51.77;100489.34;4932315;29;20245;-72
2021/06/02 02:10:41;;;;;;;0.40;0.40;;;;;;;14.65;51.32;100492.66;4969869;28;20273;-72
2021/06/02 02:13:24;;;;;;;0.30;0.30;;;;;;;14.61;51.54;100491.72;4973255;28;20694;-72
2021/06/02 02:16:18;;;;;;;0.33;0.33;;;;;;;14.41;52.56;100492.50;4973028;28;20260;-72
2021/06/02 02:18:46;;;;;;;0.50;0.47;;;;;;;14.19;52.94;100493.66;4972726;28;20205;-72
2021/06/02 02:21:40;;;;;;;0.50;0.50;;;;;;;14.07;53.19;100496.31;4973057;28;20173;-71
2021/06/02 02:24:12;;;;;;;0.40;0.40;;;;;;;13.90;54.56;100489.81;4968111;28;20201;-72
2021/06/02 02:26:58;;;;;;;0.47;0.47;;;;;;;13.89;55.49;100496.44;4972805;28;20179;-72
2021/06/02 02:29:48;;;;;;;0.50;0.50;;;;;;;14.11;55.71;100491.75;4972274;28;20586;-73
2021/06/02 02:32:48;;;;;;;0.40;0.30;;;;;;;14.25;55.56;100482.13;4972673;28;20220;-73
2021/06/02 02:35:32;;;;;;;0.77;0.57;;;;;;;14.30;55.11;100476.41;4972622;28;20649;-72
2021/06/02 02:38:23;;;;;;;0.70;0.70;;;;;;;14.33;54.85;100479.66;4972499;28;20724;-72
2021/06/02 02:41:04;;;;;;;0.37;0.37;;;;;;;14.33;54.72;100474.16;4972846;28;20173;-72
2021/06/02 02:43:30;;;;;;;0.40;0.40;;;;;;;14.32;54.50;100478.84;4972801;28;20169;-72
2021/06/02 02:46:33;;;;;;;0.40;0.40;;;;;;;14.31;54.60;100479.97;4972891;28;20188;-72
2021/06/02 02:49:20;;;;;;;0.40;0.40;;;;;;;14.19;55.28;100483.47;4991694;28;20184;-72
2021/06/02 02:52:02;;;;;;;0.60;0.60;;;;;;;14.09;55.29;100488.53;4991961;28;20184;-73
2021/06/02 02:54:35;;;;;;;0.40;0.40;;;;;;;14.18;56.43;100484.59;4991775;28;20263;-73
2021/06/02 02:57:16;;;;;;;1.63;0.67;;;;;;;14.27;55.62;100485.31;4991892;28;20181;-73
2021/06/02 03:00:00;;;;;;;0.33;0.33;;;;;;;14.37;55.85;100497.06;4991891;28;20188;-72
2021/06/02 03:02:46;;;;;;;0.50;0.50;;;;;;;14.37;55.72;100495.13;4991646;28;20212;-72
2021/06/02 03:05:14;;;;;;;0.40;0.40;;;;;;;14.39;57.00;100492.03;4991762;28;20384;-73
2021/06/02 03:07:47;;;;;;;1.37;0.60;;;;;;;14.42;56.58;100483.91;4991576;28;20181;-73
2021/06/02 03:10:16;;;;;;;0.50;0.40;;;;;;;14.42;56.13;100486.66;4991750;28;20265;-72
2021/06/02 03:12:44;;;;;;;0.60;0.60;;;;;;;14.40;55.87;100482.66;4991516;28;20180;-73
2021/06/02 03:15:31;;;;;;;0.50;0.50;;;;;;;14.37;55.81;100486.06;4991607;28;20161;-72
2021/06/02 03:18:06;;;;;;;0.50;0.50;;;;;;;14.37;55.39;100495.13;4991531;28;20219;-73
2021/06/02 03:21:09;;;;;;;0.93;0.60;;;;;;;14.27;55.67;100484.53;4991429;28;20176;-73
2021/06/02 03:23:51;;;;;;;0.40;0.40;;;;;;;14.18;56.97;100492.84;4991395;28;20230;-73
2021/06/02 03:26:18;;;;;;;0.50;0.47;;;;;;;14.09;57.09;100488.53;4990054;28;20173;-73
2021/06/02 03:28:52;;;;;;;0.60;0.60;;;;;;;14.12;57.23;100488.69;4991235;28;20549;-72
2021/06/02 03:31:45;;;;;;;0.50;0.50;;;;;;;14.14;57.75;100491.09;4991227;28;20181;-72
2021/06/02 03:34:10;;;;;;;0.90;0.70;;;;;;;14.11;57.93;100489.00;4990055;28;20581;-72
2021/06/02 03:37:06;;;;;;;0.93;0.93;;;;;;;13.99;58.26;100493.28;4991043;28;20177;-73
2021/06/02 03:39:54;;;;;;;0.50;0.50;;;;;;;13.99;58.68;100500.72;4991262;28;20178;-72
2021/06/02 03:42:45;;;;;;;0.90;0.60;;;;;;;13.99;58.75;100496.03;4994304;28;20169;-73
2021/06/02 03:45:20;;;;;;;0.93;0.77;;;;;;;13.97;59.00;100497.50;4994192;28;20267;-72
2021/06/02 03:48:06;;;;;;;0.60;0.60;;;;;;;13.98;59.44;100499.09;4995201;28;20196;-73
2021/06/02 03:51:05;;;;;;;0.50;0.50;;;;;;;13.81;59.80;100494.53;4995211;28;20537;-72
2021/06/02 03:53:53;;;;;;;0.43;0.43;;;;;;;13.77;60.51;100501.03;4993732;28;20174;-73
2021/06/02 03:56:46;;;;;;;0.40;0.40;;;;;;;13.78;61.16;100492.44;4994877;28;20173;-73
2021/06/02 03:59:31;;;;;;;1.20;1.10;;;;;;;13.72;61.42;100502.00;4994970;28;20686;-73
2021/06/02 04:02:08;;;;;;;0.70;0.70;;;;;;;13.50;62.69;100496.78;4995017;28;20177;-73
2021/06/02 04:05:08;;;;;;;0.80;0.80;;;;;;;13.40;63.02;100496.00;4994879;28;20707;-73
2021/06/02 04:07:39;;;;;;;0.70;0.70;;;;;;;13.60;63.07;100499.97;4994954;28;20169;-72
2021/06/02 04:10:30;;;;;;;0.93;0.93;;;;;;;13.60;63.24;100494.50;4994611;28;20154;-73
2021/06/02 04:13:04;;;;;;;1.10;1.00;;;;;;;13.69;64.14;100489.75;4993413;28;20185;-73
2021/06/02 04:15:30;;;;;;;1.17;1.07;;;;;;;13.65;63.78;100490.75;4994813;28;20176;-73
2021/06/02 04:17:56;;;;;;;0.70;0.70;;;;;;;13.64;63.91;100487.19;4994823;28;20197;-72
2021/06/02 04:20:22;;;;;;;0.50;0.50;;;;;;;13.65;64.27;100491.53;4994800;28;20173;-73
2021/06/02 04:22:48;;;;;;;1.00;1.00;;;;;;;13.63;64.25;100493.81;4993335;28;20177;-73
2021/06/02 04:25:16;;;;;;;0.67;0.67;;;;;;;13.58;64.75;100494.00;4994837;28;20231;-72
2021/06/02 04:27:45;;;;;;;0.80;0.80;;;;;;;13.56;64.63;100498.19;4994679;28;20173;-73
2021/06/02 04:30:15;;;;;;;1.30;1.07;;;;;;;13.52;65.48;100492.56;4994618;28;20256;-73
2021/06/02 04:32:44;;;;;;;1.00;1.00;;;;;;;13.57;65.33;100502.56;4994522;28;20177;-73
2021/06/02 04:35:13;;;;;;;1.23;1.13;;;;;;;13.61;65.61;100506.28;4994542;28;20193;-73
2021/06/02 04:37:39;;;;;;;1.20;0.97;;;;;;;13.62;65.74;100494.97;4994215;28;20207;-72
2021/06/02 04:40:07;;;;;;;1.17;1.17;;;;;;;13.76;65.72;100491.19;4994405;28;20173;-73
2021/06/02 04:42:37;;;;;;;1.10;1.00;;;;;;;13.89;65.55;100484.66;4994357;28;20257;-72
2021/06/02 04:45:05;;;;;;;0.80;0.80;;;;;;;13.97;65.59;100492.00;4994526;28;20184;-73
2021/06/02 04:47:32;;;;;;;0.90;0.70;;;;;;;13.93;65.83;100496.56;4994165;28;20181;-73
2021/06/02 04:50:19;;;;;;;1.03;0.97;;;;;;;13.98;65.64;100504.59;4975213;28;20592;-73
2021/06/02 04:53:03;;;;;;;1.20;1.10;;;;;;;13.91;66.89;100507.88;4973304;28;20170;-72
2021/06/02 04:55:48;;;;;;;2.17;1.17;;;;;;;13.95;66.33;100508.81;4974500;28;20621;-72
2021/06/02 04:58:49;;;;;;;2.00;1.73;;;;;;;13.99;66.90;100497.97;4974289;28;20313;-73
2021/06/02 05:01:34;;;;;;;1.73;1.63;;;;;;;14.11;66.47;100500.81;4974445;28;20165;-73
2021/06/02 05:04:40;;;;;;;1.07;1.07;;;;;;;14.08;67.35;100506.16;4974364;28;20202;-72
2021/06/02 05:07:24;;;;;;;1.10;1.00;;;;;;;14.10;67.24;100512.13;4974387;28;20197;-72
2021/06/02 05:10:11;;;;;;;1.30;1.20;;;;;;;14.05;67.90;100504.91;4974128;28;20497;-72
2021/06/02 05:13:13;;;;;;;1.93;1.77;;;;;;;14.02;68.67;100518.47;4974193;28;20313;-72
2021/06/02 05:16:09;;;;;;;1.20;1.10;;;;;;;14.02;69.10;100519.28;4974137;28;20493;-77
2021/06/02 05:18:59;;;;;;;5.27;1.20;;;;;;;14.12;69.61;100520.84;4974179;28;20677;-72
2021/06/02 05:25:00;;;;;;;1.13;1.07;;;;;;;14.21;70.23;100530.66;4974335;28;20200;-72
2021/06/02 05:27:44;;;;;;;1.73;1.60;;;;;;;14.18;70.42;100528.56;4958308;28;20209;-72
2021/06/02 05:30:43;;;;;;;3.93;1.20;;;;;;;14.26;70.37;100530.44;4974236;28;20637;-72
2021/06/02 05:33:29;;;;;;;1.43;1.33;;;;;;;14.26;69.65;100533.19;4973833;28;20604;-71
2021/06/02 05:36:10;;;;;;;1.20;1.10;;;;;;;14.22;70.53;100537.75;4973756;28;20236;-72
2021/06/02 05:39:06;;;;;;;1.47;1.37;;;;;;;14.29;70.52;100539.97;4974148;28;20654;-72
2021/06/02 05:41:54;;;;;;;1.67;1.57;;;;;;;14.33;70.20;100524.44;4973919;28;20426;-72
2021/06/02 05:44:40;;;;;;;1.60;1.50;;;;;;;14.38;70.42;100528.91;4972656;28;20182;-72
2021/06/02 05:47:17;;;;;;;2.90;1.37;;;;;;;14.42;70.65;100529.84;4966315;28;20186;-72
2021/06/02 05:50:10;;;;;;;1.47;1.20;;;;;;;14.54;70.86;100535.44;4973596;28;20173;-73
2021/06/02 05:53:17;;;;;;;1.70;1.60;;;;;;;14.58;70.62;100533.63;4973707;28;20178;-73
2021/06/02 05:56:25;;;;;;;2.17;1.37;;;;;;;14.80;69.88;100532.47;4973912;28;20174;-72
2021/06/02 05:59:06;;;;;;;1.40;1.30;;;;;;;15.02;69.72;100521.09;4973840;28;20209;-72
2021/06/02 06:01:37;;;;;;;1.00;1.00;;;;;;;15.25;69.61;100531.72;4975914;28;20221;-72
2021/06/02 06:04:44;;;;;;;2.37;1.37;;;;;;;15.49;68.54;100529.00;4996729;28;20204;-72
2021/06/02 06:07:34;;;;;;;1.60;1.50;;;;;;;15.44;66.75;100526.47;4994658;28;20645;-72
2021/06/02 06:10:24;;;;;;;1.63;1.50;;;;;;;15.38;68.22;100525.88;4977937;28;20227;-72
2021/06/02 06:13:14;;;;;;;1.77;1.67;;;;;;;15.31;68.15;100525.63;4992622;28;20199;-73
2021/06/02 06:16:17;;;;;;;1.60;1.50;;;;;;;15.35;68.45;100520.28;4991587;28;20211;-72
2021/06/02 06:19:20;;;;;;;1.67;1.57;;;;;;;15.19;69.81;100525.63;4991701;28;20295;-72
2021/06/02 06:22:04;;;;;;;1.67;1.57;;;;;;;15.40;69.07;100525.53;4992455;28;20181;-72
2021/06/02 06:24:41;;;;;;;1.60;1.50;;;;;;;15.55;68.22;100524.06;4992567;28;20236;-71
2021/06/02 06:27:28;;;;;;;1.80;1.57;;;;;;;15.47;68.53;100523.81;4993068;28;20184;-71
2021/06/02 06:29:57;;;;;;;2.97;2.77;;;;;;;15.55;68.39;100524.06;4992136;28;20215;-71
2021/06/02 06:32:24;;;;;;;2.03;1.83;;;;;;;15.68;68.42;100534.00;4992434;28;20187;-72
2021/06/02 06:34:52;;;;;;;2.80;2.60;;;;;;;15.77;68.93;100529.97;4992154;28;20642;-71
2021/06/02 06:37:18;;;;;;;1.93;1.83;;;;;;;15.86;68.43;100529.84;4992122;28;20185;-71
2021/06/02 06:39:51;;;;;;;2.03;1.93;;;;;;;15.97;67.80;100527.44;4992065;28;20176;-71
2021/06/02 06:42:35;;;;;;;2.23;1.83;;;;;;;15.98;67.86;100532.59;4991838;28;20228;-71
2021/06/02 06:45:10;;;;;;;2.30;2.10;;;;;;;16.03;68.54;100532.38;4992027;28;20653;-72
2021/06/02 06:47:37;;;;;;;2.43;2.23;;;;;;;16.18;68.35;100532.81;4990890;28;20263;-71
2021/06/02 06:50:07;;;;;;;2.70;2.50;;;;;;;16.28;67.13;100530.38;4991690;28;20220;-72
2021/06/02 06:52:34;;;;;;;1.93;1.83;;;;;;;16.38;68.10;100534.63;4991693;28;20192;-72
2021/06/02 06:55:02;;;;;;;1.93;1.73;;;;;;;16.30;67.90;100536.34;4991830;28;20177;-71
2021/06/02 06:57:29;;;;;;;1.70;1.60;;;;;;;16.49;67.44;100537.69;4991605;28;20243;-71
2021/06/02 06:59:55;;;;;;;2.63;2.43;;;;;;;16.45;67.39;100534.03;4991621;28;20626;-71
2021/06/02 07:02:21;;;;;;;2.97;2.60;;;;;;;16.32;67.94;100538.75;4991560;28;20196;-74
2021/06/02 07:04:47;;;;;;;3.13;2.20;;;;;;;16.36;68.07;100542.44;4991696;28;20634;-71
2021/06/02 07:07:14;;;;;;;2.60;2.00;;;;;;;16.65;69.13;100535.81;4991800;28;20216;-71
2021/06/02 07:09:39;;;;;;;2.57;2.37;;;;;;;16.71;66.63;100539.16;4991461;28;20215;-72
2021/06/02 07:12:07;;;;;;;3.10;2.63;;;;;;;16.92;66.30;100539.75;4991641;28;20566;-72
2021/06/02 07:14:36;;;;;;;2.40;2.13;;;;;;;16.92;66.02;100531.47;4991494;28;20712;-71
2021/06/02 07:17:05;;;;;;;2.40;2.20;;;;;;;16.89;66.20;100532.97;4991501;28;20185;-71
2021/06/02 07:19:37;;;;;;;2.77;2.53;;;;;;;16.89;65.36;100529.41;4991694;28;20181;-71
2021/06/02 07:22:04;;;;;;;2.40;2.13;;;;;;;16.93;65.53;100527.59;4976479;28;20545;-71
2021/06/02 07:24:29;;;;;;;2.17;2.03;;;;;;;16.95;65.30;100537.09;4972155;28;20184;-72
2021/06/02 07:26:55;;;;;;;2.60;2.40;;;;;;;16.99;66.28;100533.63;4985979;28;20197;-71
2021/06/02 07:29:22;;;;;;;2.70;2.47;;;;;;;17.15;65.83;100543.56;4991058;28;20239;-72
2021/06/02 07:31:48;;;;;;;2.27;2.10;;;;;;;17.14;66.16;100538.38;4983737;28;20186;-70
2021/06/02 07:34:13;;;;;;;2.47;2.30;;;;;;;17.31;66.70;100529.78;4991070;28;20186;-71
2021/06/02 07:36:39;;;;;;;3.20;2.00;;;;;;;17.40;66.08;100533.19;4990051;28;20189;-72
2021/06/02 07:39:05;;;;;;;4.23;2.70;;;;;;;17.43;66.51;100531.66;4990825;28;20244;-72
2021/06/02 07:41:30;;;;;;;2.47;2.27;;;;;;;17.39;65.12;100534.34;4989595;28;20189;-72
2021/06/02 07:43:56;;;;;;;3.23;2.90;;;;;;;17.25;66.51;100543.06;4991122;28;20180;-73
2021/06/02 07:46:21;;;;;;;3.10;2.77;;;;;;;17.47;66.32;100538.06;4991101;28;20189;-73
2021/06/02 07:48:46;;;;;;;2.73;2.53;;;;;;;17.38;66.61;100540.22;4990798;28;20220;-73
2021/06/02 07:51:12;;;;;;;2.43;2.27;;;;;;;17.73;65.90;100540.34;4991038;28;20197;-72
2021/06/02 07:53:38;;;;;;;2.53;2.33;;;;;;;17.78;66.33;100535.34;4991082;28;20188;-73
2021/06/02 07:56:03;;;;;;;2.77;2.57;;;;;;;17.57;65.11;100526.50;4991228;28;20540;-73
2021/06/02 07:58:29;;;;;;;2.00;1.90;;;;;;;17.74;64.74;100531.69;4990706;28;20731;-73
2021/06/02 08:00:54;;;;;;;3.17;2.93;;;;;;;17.59;65.88;100529.69;4990941;28;20227;-72
2021/06/02 08:03:19;;;;;;;2.13;2.03;;;;;;;17.63;65.66;100538.06;4990712;28;20583;-72
2021/06/02 08:05:45;;;;;;;3.37;2.07;;;;;;;17.79;66.08;100533.38;4989306;28;20185;-72
2021/06/02 08:08:10;;;;;;;2.60;2.20;;;;;;;17.92;65.22;100531.31;4990754;28;20724;-72
2021/06/02 08:10:36;;;;;;;2.40;2.20;;;;;;;17.74;66.04;100533.66;4990778;28;20606;-72
2021/06/02 08:13:02;;;;;;;2.73;2.20;;;;;;;17.84;65.40;100531.16;4990460;28;20193;-72
2021/06/02 08:15:28;;;;;;;1.67;1.57;;;;;;;17.87;66.02;100543.47;4989352;28;20265;-71
2021/06/02 08:17:54;;;;;;;2.77;2.57;;;;;;;18.14;65.65;100544.50;4989024;28;20209;-72
2021/06/02 08:20:19;;;;;;;2.07;1.97;;;;;;;18.19;64.89;100546.16;4989345;28;20638;-72
2021/06/02 08:22:45;;;;;;;2.40;2.20;;;;;;;18.11;64.22;100545.22;4989936;28;20173;-72
2021/06/02 08:25:15;;;;;;;1.70;1.60;;;;;;;18.02;64.93;100548.16;4990254;28;20235;-72
2021/06/02 08:27:41;;;;;;;3.63;2.53;;;;;;;18.01;64.34;100549.31;4992117;28;20600;-71
2021/06/02 08:30:08;;;;;;;2.23;2.10;;;;;;;18.30;64.50;100548.03;4994103;28;20200;-72
2021/06/02 08:32:35;;;;;;;2.27;1.83;;;;;;;18.38;65.31;100558.09;4992731;28;20177;-73
2021/06/02 08:35:00;;;;;;;1.73;1.60;;;;;;;18.61;64.71;100547.09;4994148;28;20248;-73
2021/06/02 08:37:25;;;;;;;2.60;2.40;;;;;;;18.76;63.25;100550.22;4994015;28;20209;-73
2021/06/02 08:39:51;;;;;;;1.90;1.80;;;;;;;18.57;63.23;100551.78;4993796;28;20725;-71
2021/06/02 08:42:17;;;;;;;2.37;2.17;;;;;;;18.81;64.33;100547.97;4992804;28;20658;-71
2021/06/02 08:44:43;;;;;;;2.80;2.47;;;;;;;18.84;62.50;100543.66;4993913;28;20633;-71
2021/06/02 08:47:08;;;;;;;2.53;2.33;;;;;;;18.86;64.38;100536.59;4993823;28;20178;-70
2021/06/02 08:49:33;;;;;;;2.27;2.17;;;;;;;18.88;62.97;100544.53;4993578;28;20256;-70
2021/06/02 08:52:05;;;;;;;2.37;2.17;;;;;;;19.06;63.15;100540.13;4993876;28;20236;-71
2021/06/02 08:54:31;;;;;;;2.00;1.90;;;;;;;19.30;62.61;100539.81;4993935;28;20178;-71
2021/06/02 08:56:57;;;;;;;4.67;2.17;;;;;;;19.16;62.21;100545.09;4993526;28;20550;-71
2021/06/02 08:59:23;;;;;;;2.97;2.67;;;;;;;19.14;62.32;100539.13;4993459;28;20211;-70
2021/06/02 09:01:49;;;;;;;2.47;2.37;;;;;;;18.98;62.56;100538.41;4993649;28;20205;-71
2021/06/02 09:04:15;;;;;;;3.20;2.60;;;;;;;19.39;61.87;100541.56;4993552;28;20212;-71
2021/06/02 09:06:44;;;;;;;1.90;1.80;;;;;;;19.33;62.87;100538.25;4993504;28;20177;-71
2021/06/02 09:09:12;;;;;;;2.33;2.23;;;;;;;19.50;60.73;100537.78;4993281;28;20182;-71
2021/06/02 09:11:43;;;;;;;2.30;1.83;;;;;;;19.51;61.79;100533.84;4993404;28;20216;-71
2021/06/02 09:14:30;;;;;;;2.40;2.27;;;;;;;19.65;60.76;100532.50;4993225;28;20264;-71
2021/06/02 09:17:01;;;;;;;2.70;2.50;;;;;;;19.78;61.09;100537.50;4993525;28;20204;-71
2021/06/02 09:19:46;;;;;;;2.67;2.37;;;;;;;19.75;60.75;100532.69;4992981;28;20665;-71
2021/06/02 09:22:16;;;;;;;2.57;2.37;;;;;;;19.90;61.21;100534.53;4993298;28;20232;-71
2021/06/02 09:24:58;;;;;;;2.17;1.97;;;;;;;19.76;60.16;100533.50;4993101;28;20267;-71
2021/06/02 09:27:54;;;;;;;2.90;2.00;;;;;;;19.95;60.74;100533.41;4993151;28;20560;-71
2021/06/02 09:30:31;;;;;;;3.83;2.67;;;;;;;20.15;60.25;100525.78;4993187;28;20701;-71
2021/06/02 09:32:58;;;;;;;2.50;2.30;;;;;;;20.19;60.02;100523.84;4993615;28;20212;-71
2021/06/02 09:35:38;;;;;;;2.90;2.30;;;;;;;20.36;61.35;100537.19;4993221;28;20169;-71
2021/06/02 09:38:05;;;;;;;1.87;1.77;;;;;;;20.62;60.24;100536.38;4992379;28;20232;-71
2021/06/02 09:40:38;;;;;;;2.50;2.20;;;;;;;20.49;59.44;100532.22;4992496;28;20189;-71
2021/06/02 09:43:04;;;;;;;2.40;2.30;;;;;;;20.58;58.91;100529.19;4993286;28;20565;-71
2021/06/02 09:45:30;;;;;;;2.40;2.20;;;;;;;20.36;59.64;100528.84;4992884;28;20184;-71
2021/06/02 09:48:00;;;;;;;2.77;2.50;;;;;;;20.62;59.42;100524.47;4992676;28;20534;-71
2021/06/02 09:50:39;;;;;;;3.23;3.03;;;;;;;20.55;59.14;100527.97;4992840;28;20182;-71
2021/06/02 09:53:07;;;;;;;2.60;2.40;;;;;;;20.41;60.60;100536.06;4992752;28;20629;-71
2021/06/02 09:55:32;;;;;;;2.03;1.93;;;;;;;20.87;60.18;100531.13;4992234;28;20166;-71
2021/06/02 09:58:00;;;;;;;2.63;2.43;;;;;;;20.88;58.57;100537.47;4992169;28;20696;-71
2021/06/02 10:00:26;;;;;;;2.53;2.33;;;;;;;20.85;58.33;100527.94;4992360;28;20176;-71
2021/06/02 10:02:59;;;;;;;2.83;2.63;;;;;;;20.61;58.33;100531.19;4992481;28;20248;-70
2021/06/02 10:05:33;;;;;;;2.50;2.30;;;;;;;20.59;58.70;100531.56;4992518;28;20178;-71
2021/06/02 10:07:58;;;;;;;2.13;2.03;;;;;;;20.94;59.41;100524.84;4992381;28;20173;-71
2021/06/02 10:10:25;;;;;;;2.80;2.53;;;;;;;20.83;57.83;100519.19;4992249;28;20169;-71
2021/06/02 10:13:11;;;;;;;3.37;3.07;;;;;;;20.94;58.29;100525.63;4992382;28;20185;-71
2021/06/02 10:15:40;;;;;;;2.93;2.73;;;;;;;20.56;58.47;100520.44;4992333;28;20244;-70
2021/06/02 10:18:30;;;;;;;2.70;2.20;;;;;;;20.69;59.28;100530.13;4992258;28;20238;-71
2021/06/02 10:20:58;;;;;;;2.00;1.90;;;;;;;20.90;58.79;100526.78;4992200;28;20643;-71
2021/06/02 10:23:30;;;;;;;2.63;2.50;;;;;;;21.16;58.46;100534.22;4992231;28;20260;-71
2021/06/02 10:25:57;;;;;;;2.40;2.20;;;;;;;21.36;58.58;100535.63;4992152;28;20197;-71
2021/06/02 10:28:25;;;;;;;2.57;2.37;;;;;;;21.47;58.38;100532.97;4991934;28;20229;-71
2021/06/02 10:30:51;;;;;;;3.50;2.37;;;;;;;21.35;57.38;100534.03;4992052;28;20171;-70
2021/06/02 10:33:16;;;;;;;2.57;2.37;;;;;;;21.24;57.32;100528.34;4991860;28;20261;-71
2021/06/02 10:35:42;;;;;;;2.90;2.60;;;;;;;21.36;57.65;100541.19;4992168;28;20792;-72
2021/06/02 10:38:07;;;;;;;2.10;2.00;;;;;;;21.45;57.86;100536.13;4991758;28;20197;-72
2021/06/02 10:40:35;;;;;;;1.97;1.87;;;;;;;21.67;59.92;100539.88;4991856;28;20227;-72
2021/06/02 10:43:11;;;;;;;2.90;2.67;;;;;;;21.49;57.76;100539.75;4990529;28;20716;-72
2021/06/02 10:45:54;;;;;;;2.53;2.33;;;;;;;21.48;58.06;100540.94;4991833;28;20669;-72
2021/06/02 10:48:56;;;;;;;2.23;2.10;;;;;;;21.63;57.44;100539.06;4991644;28;20249;-72
2021/06/02 10:51:30;;;;;;;2.33;2.23;;;;;;;21.65;57.94;100537.50;4953416;28;20559;-72
2021/06/02 10:54:11;;;;;;;2.13;2.03;;;;;;;21.67;57.86;100540.69;4984641;28;20691;-72
2021/06/02 10:56:39;;;;;;;2.47;2.27;;;;;;;21.95;58.38;100531.78;4991715;28;20169;-72
2021/06/02 10:59:30;;;;;;;2.40;2.20;;;;;;;22.17;57.49;100535.53;4991480;28;20746;-72
2021/06/02 11:02:08;;;;;;;2.67;2.47;;;;;;;22.21;57.12;100532.78;4991575;28;20183;-72
2021/06/02 11:04:39;;;;;;;2.77;2.57;;;;;;;22.42;56.35;100530.13;4991695;28;20227;-73
2021/06/02 11:07:14;;;;;;;2.70;2.50;;;;;;;22.30;56.51;100536.03;4991650;28;20224;-73
2021/06/02 11:10:02;;;;;;;2.30;2.10;;;;;;;22.26;56.76;100535.19;4991434;28;20180;-73
2021/06/02 11:12:48;;;;;;;2.20;2.00;;;;;;;22.52;56.45;100534.13;4991461;28;20270;-73
2021/06/02 11:15:35;;;;;;;2.23;2.03;;;;;;;22.87;58.54;100530.75;4991454;28;20178;-73
2021/06/02 11:18:10;;;;;;;2.30;2.10;;;;;;;22.76;55.83;100527.09;4991095;28;20204;-73
2021/06/02 11:20:39;;;;;;;2.70;2.50;;;;;;;22.31;55.65;100531.25;4991530;28;20255;-73
2021/06/02 11:23:06;;;;;;;3.60;2.30;;;;;;;22.47;56.28;100526.97;4991337;28;20204;-73
2021/06/02 11:25:32;;;;;;;2.40;2.20;;;;;;;22.42;56.50;100518.16;4991340;28;20200;-73
2021/06/02 11:27:57;;;;;;;2.80;1.93;;;;;;;22.48;57.42;100523.00;4991234;28;20217;-73
2021/06/02 11:30:24;;;;;;;8.73;2.10;;;;;;;22.79;56.88;100527.09;4991268;28;20205;-73
2021/06/02 11:32:51;;;;;;;2.53;2.33;;;;;;;22.55;55.75;100527.78;4991281;28;20181;-73
2021/06/02 11:35:17;;;;;;;2.37;2.00;;;;;;;22.72;57.66;100518.72;4991374;28;20253;-73
2021/06/02 11:37:42;;;;;;;2.17;2.07;;;;;;;22.84;55.72;100529.53;4991060;28;20288;-73
2021/06/02 11:40:10;;;;;;;1.80;1.70;;;;;;;22.92;55.75;100535.13;4991223;28;20187;-73
2021/06/02 11:42:38;;;;;;;1.77;1.67;;;;;;;23.22;54.90;100509.72;4991299;28;20169;-73
2021/06/02 11:45:07;;;;;;;2.33;2.17;;;;;;;23.42;54.86;100524.88;4991319;28;20176;-73
2021/06/02 11:47:34;;;;;;;1.93;1.70;;;;;;;23.22;56.99;100518.09;4991207;28;20169;-73
2021/06/02 11:50:05;;;;;;;2.17;2.07;;;;;;;23.05;54.30;100517.66;4991114;28;20165;-73
2021/06/02 11:52:31;;;;;;;2.10;1.90;;;;;;;23.02;54.81;100517.66;4991535;28;20169;-73
2021/06/02 11:55:02;;;;;;;2.20;2.00;;;;;;;22.92;54.11;100515.63;4991273;28;20294;-73
2021/06/02 11:57:31;;;;;;;2.20;2.10;;;;;;;23.24;54.81;100522.06;4991470;28;20186;-73
2021/06/02 11:59:58;;;;;;;2.40;2.30;;;;;;;23.32;52.33;100520.91;4995206;28;20224;-73
2021/06/02 12:02:24;;;;;;;1.83;1.73;;;;;;;23.30;53.10;100522.50;4997023;28;20268;-73
2021/06/02 12:04:49;;;;;;;2.00;1.90;;;;;;;23.18;52.64;100518.09;4995907;28;20307;-73